createdAt,value
2019-04-23T00:02:53.350Z,5.70
2019-04-23T00:07:22.618Z,6.90
2019-04-23T00:11:24.036Z,7.50
2019-04-23T00:15:25.221Z,7.43
2019-04-23T00:19:45.160Z,7.30
2019-04-23T00:23:53.350Z,7.27
2019-04-23T00:27:59.913Z,7.73
2019-04-23T00:32:15.451Z,8.27
2019-04-23T00:36:20.969Z,8.17
2019-04-23T00:40:37.553Z,9.00
2019-04-23T00:48:51.879Z,14.93
2019-04-23T00:53:01.962Z,12.20
2019-04-23T01:01:18.549Z,8.03
2019-04-23T01:05:29.663Z,8.77
2019-04-23T01:09:48.815Z,8.03
2019-04-23T01:13:49.603Z,8.30
2019-04-23T01:18:10.983Z,8.70
2019-04-23T01:21:53.362Z,9.50
2019-04-23T01:26:21.068Z,9.03
2019-04-23T01:30:38.757Z,7.30
2019-04-23T01:34:54.197Z,6.70
2019-04-23T01:39:03.897Z,6.30
2019-04-23T01:43:05.543Z,5.87
2019-04-23T01:47:17.272Z,5.07
2019-04-23T01:51:30.422Z,5.10
2019-04-23T01:55:38.425Z,5.30
2019-04-23T01:59:48.710Z,4.90
2019-04-23T02:04:07.189Z,4.80
2019-04-23T02:08:05.258Z,5.23
2019-04-23T02:12:20.520Z,4.93
2019-04-23T02:16:25.800Z,5.40
2019-04-23T02:20:36.258Z,5.80
2019-04-23T02:24:52.707Z,4.30
2019-04-23T02:29:06.758Z,4.00
2019-04-23T02:33:20.161Z,4.23
2019-04-23T02:37:35.663Z,3.90
2019-04-23T02:45:48.422Z,3.50
2019-04-23T02:49:55.354Z,3.73
2019-04-23T02:58:10.903Z,5.20
2019-04-23T03:02:37.270Z,6.33
2019-04-23T03:06:32.251Z,4.40
2019-04-23T03:10:41.984Z,3.37
2019-04-23T03:14:59.167Z,3.73
2019-04-23T03:19:21.899Z,4.00
2019-04-23T03:23:52.066Z,5.87
2019-04-23T03:27:37.306Z,6.50
2019-04-23T03:44:20.566Z,8.17
2019-04-23T03:48:37.708Z,9.43
2019-04-23T03:52:40.537Z,9.47
2019-04-23T03:57:03.258Z,8.40
2019-04-23T04:00:58.788Z,8.63
2019-04-23T04:05:10.777Z,6.70
2019-04-23T04:09:32.300Z,7.50
2019-04-23T04:13:31.581Z,7.37
2019-04-23T04:18:01.622Z,6.33
2019-04-23T04:21:49.946Z,6.87
2019-04-23T04:26:00.885Z,5.60
2019-04-23T04:30:12.429Z,6.33
2019-04-23T04:34:58.170Z,5.47
2019-04-23T04:42:37.056Z,6.93
2019-04-23T04:46:45.847Z,7.90
2019-04-23T04:51:00.456Z,12.43
2019-04-23T04:55:03.043Z,16.87
2019-04-23T05:03:24.001Z,14.97
2019-04-23T05:07:35.997Z,15.80
2019-04-23T05:12:01.589Z,14.40
2019-04-23T05:15:51.423Z,14.77
2019-04-23T05:28:28.505Z,5.90
2019-04-23T05:32:27.076Z,5.77
2019-04-23T05:44:57.211Z,6.27
2019-04-23T05:49:19.503Z,6.87
2019-04-23T05:53:33.474Z,6.30
2019-04-23T05:57:20.009Z,19.13
2019-04-23T06:05:49.720Z,8.83
2019-04-23T06:09:59.431Z,5.50
2019-04-23T06:14:17.409Z,5.87
2019-04-23T06:22:36.948Z,5.33
2019-04-23T06:26:54.282Z,5.10
2019-04-23T06:30:54.341Z,6.43
2019-04-23T06:34:51.192Z,6.10
2019-04-23T06:39:01.242Z,5.83
2019-04-23T06:43:47.554Z,4.03
2019-04-23T06:47:45.144Z,4.10
2019-04-23T06:56:13.548Z,6.10
2019-04-23T07:00:17.235Z,3.10
2019-04-23T07:04:29.036Z,3.40
2019-04-23T07:08:56.299Z,4.17
2019-04-23T07:12:47.221Z,3.17
2019-04-23T07:17:00.204Z,2.83
2019-04-23T07:21:15.437Z,3.27
2019-04-23T07:25:18.938Z,3.73
2019-04-23T07:33:43.958Z,2.50
2019-04-23T07:37:56.583Z,2.53
2019-04-23T07:42:29.580Z,3.00
2019-04-23T07:46:57.471Z,3.23
2019-04-23T07:55:13.768Z,2.80
2019-04-23T07:59:17.554Z,2.87
2019-04-23T08:03:22.643Z,3.10
2019-04-23T08:07:35.694Z,2.73
2019-04-23T08:11:39.940Z,3.73
2019-04-23T08:16:00.515Z,3.53
2019-04-23T08:20:06.539Z,3.57
2019-04-23T08:24:38.018Z,2.70
2019-04-23T08:32:57.589Z,9.57
2019-04-23T08:41:33.877Z,4.63
2019-04-23T08:45:35.410Z,4.33
2019-04-23T08:54:03.040Z,5.73
2019-04-23T08:58:13.389Z,2.93
2019-04-23T09:06:47.182Z,3.73
2019-04-23T09:10:41.036Z,3.30
2019-04-23T09:14:51.283Z,3.87
2019-04-23T09:19:02.655Z,5.10
2019-04-23T09:23:02.813Z,3.80
2019-04-23T09:27:23.487Z,3.60
2019-04-23T09:36:05.157Z,4.73
2019-04-23T09:40:54.894Z,4.03
2019-04-23T09:45:11.040Z,3.80
2019-04-23T09:49:20.813Z,5.47
2019-04-23T09:53:29.677Z,3.77
2019-04-23T09:57:44.683Z,3.47
2019-04-23T10:01:37.023Z,3.60
2019-04-23T10:05:39.993Z,2.90
2019-04-23T10:09:40.626Z,3.80
2019-04-23T10:13:50.333Z,2.17
2019-04-23T10:17:58.482Z,3.47
2019-04-23T10:22:07.201Z,2.87
2019-04-23T10:26:16.430Z,2.80
2019-04-23T10:30:24.412Z,3.50
2019-04-23T10:34:42.895Z,2.93
2019-04-23T10:38:54.030Z,3.47
2019-04-23T10:42:53.902Z,4.63
2019-04-23T10:47:45.208Z,3.40
2019-04-23T10:56:18.519Z,3.97
2019-04-23T11:00:19.474Z,4.33
2019-04-23T11:04:38.577Z,3.57
2019-04-23T11:08:38.352Z,3.63
2019-04-23T11:13:01.217Z,2.27
2019-04-23T11:17:19.337Z,2.80
2019-04-23T11:21:28.567Z,3.00
2019-04-23T11:29:44.385Z,2.97
2019-04-23T11:34:13.210Z,2.90
2019-04-23T11:38:21.004Z,3.00
2019-04-23T11:42:11.535Z,2.63
2019-04-23T11:46:41.279Z,3.17
2019-04-23T11:51:07.460Z,2.93
2019-04-23T11:54:39.360Z,3.10
2019-04-23T11:58:47.605Z,3.03
2019-04-23T12:03:12.673Z,3.27
2019-04-23T12:07:33.937Z,2.80
2019-04-23T12:11:58.296Z,3.00
2019-04-23T12:16:04.046Z,3.30
2019-04-23T12:20:12.284Z,2.70
2019-04-23T12:28:30.590Z,4.00
2019-04-23T12:37:11.344Z,3.53
2019-04-23T12:41:13.986Z,3.80
2019-04-23T12:45:23.352Z,3.33
2019-04-23T12:49:53.357Z,3.30
2019-04-23T12:57:40.881Z,4.33
2019-04-23T13:01:55.917Z,2.37
2019-04-23T13:05:51.428Z,4.83
2019-04-23T13:10:09.937Z,3.17
2019-04-23T13:14:25.950Z,4.47
2019-04-23T13:18:31.545Z,4.73
2019-04-23T13:22:48.896Z,4.90
2019-04-23T13:26:44.796Z,4.03
2019-04-23T13:35:23.058Z,4.53
2019-04-23T13:39:21.251Z,3.17
2019-04-23T13:43:38.036Z,3.37
2019-04-23T13:47:48.065Z,4.63
2019-04-23T13:52:15.979Z,2.73
2019-04-23T13:55:53.461Z,2.80
2019-04-23T14:00:09.019Z,3.97
2019-04-23T14:04:36.711Z,2.80
2019-04-23T14:17:00.245Z,3.67
2019-04-23T14:21:08.569Z,3.00
2019-04-23T14:29:21.480Z,3.33
2019-04-23T14:33:37.525Z,3.83
2019-04-23T14:37:59.050Z,4.17
2019-04-23T14:41:54.153Z,4.20
2019-04-23T14:50:30.397Z,3.70
2019-04-23T14:54:34.344Z,9.77
2019-04-23T15:02:54.304Z,3.90
2019-04-23T15:07:02.548Z,4.27
2019-04-23T15:19:53.049Z,4.90
2019-04-23T15:32:19.972Z,6.17
2019-04-23T15:40:23.628Z,5.33
2019-04-23T15:44:28.201Z,4.70
2019-04-23T15:48:49.857Z,5.83
2019-04-23T15:52:58.212Z,4.73
2019-04-23T15:57:05.850Z,7.37
2019-04-23T16:01:31.886Z,5.03
2019-04-23T16:05:03.696Z,5.00
2019-04-23T16:09:36.166Z,7.23
2019-04-23T16:14:10.170Z,5.57
2019-04-23T16:18:22.079Z,4.90
2019-04-23T16:22:18.751Z,29.83
2019-04-23T16:26:29.850Z,14.07
2019-04-23T16:30:40.808Z,6.17
2019-04-23T16:34:54.429Z,5.47
2019-04-23T16:47:26.123Z,10.33
2019-04-23T16:51:32.843Z,6.53
2019-04-23T16:55:49.770Z,6.80
2019-04-23T17:00:07.390Z,8.07
2019-04-23T17:04:03.731Z,8.83
2019-04-23T17:08:36.022Z,8.67
2019-04-23T17:12:17.597Z,10.60
2019-04-23T17:20:47.482Z,8.23
2019-04-23T17:25:00.819Z,8.73
2019-04-23T17:29:12.279Z,7.40
2019-04-23T17:33:19.108Z,8.77
2019-04-23T17:37:29.987Z,7.77
2019-04-23T17:42:01.719Z,9.57
2019-04-23T17:50:26.904Z,8.10
2019-04-23T17:54:24.590Z,6.07
2019-04-23T17:58:28.882Z,6.90
2019-04-23T18:11:09.258Z,7.17
2019-04-23T18:15:15.672Z,10.10
2019-04-23T18:19:13.121Z,11.70
2019-04-23T18:23:42.874Z,20.33
2019-04-23T18:27:38.645Z,11.57
2019-04-23T18:32:13.116Z,11.33
2019-04-23T18:36:13.205Z,11.77
2019-04-23T18:40:28.569Z,10.07
2019-04-23T18:44:44.947Z,9.17
2019-04-23T18:52:58.513Z,8.57
2019-04-23T19:01:20.009Z,8.53
2019-04-23T19:05:55.014Z,8.70
2019-04-23T19:14:28.490Z,6.73
2019-04-23T19:18:31.990Z,7.60
2019-04-23T19:31:26.068Z,10.67
2019-04-23T19:39:43.233Z,8.10
2019-04-23T19:43:57.947Z,8.47
2019-04-23T19:48:13.434Z,8.17
2019-04-23T19:52:11.383Z,8.93
2019-04-23T19:56:29.068Z,10.17
2019-04-23T20:00:45.715Z,10.10
2019-04-23T20:12:59.042Z,7.50
2019-04-23T20:21:19.486Z,8.10
2019-04-23T20:34:40.259Z,7.87
2019-04-23T20:38:33.029Z,7.50
2019-04-23T20:42:40.797Z,6.93
2019-04-23T20:46:52.398Z,9.20
2019-04-23T20:50:50.732Z,7.23
2019-04-23T20:55:02.077Z,7.10
2019-04-23T21:03:39.114Z,8.03
2019-04-23T21:07:49.057Z,6.93
2019-04-23T21:11:53.194Z,6.93
2019-04-23T21:20:14.457Z,6.63
2019-04-23T21:24:07.203Z,6.70
2019-04-23T21:28:35.917Z,7.03
2019-04-23T21:32:42.179Z,6.90
2019-04-23T21:36:49.419Z,6.67
2019-04-23T21:45:40.803Z,5.50
2019-04-23T21:49:56.709Z,6.53
2019-04-23T21:53:51.707Z,6.70
2019-04-23T22:02:23.314Z,6.57
2019-04-23T22:06:30.614Z,5.87
2019-04-23T22:10:47.930Z,6.37
2019-04-23T22:14:45.326Z,5.87
2019-04-23T22:19:10.954Z,6.17
2019-04-23T22:27:09.781Z,6.37
2019-04-23T22:31:39.004Z,6.87
2019-04-23T22:35:37.833Z,7.20
2019-04-23T22:39:45.935Z,7.17
2019-04-23T22:44:05.113Z,6.93
2019-04-23T22:48:08.038Z,6.87
2019-04-23T22:52:22.992Z,8.00
2019-04-23T22:56:27.545Z,6.90
2019-04-23T23:00:39.040Z,7.17
2019-04-23T23:05:02.386Z,6.57
2019-04-23T23:09:10.470Z,6.63
2019-04-23T23:17:27.089Z,6.57
2019-04-23T23:21:38.493Z,7.00
2019-04-23T23:25:39.776Z,6.33
2019-04-23T23:29:58.098Z,6.77
2019-04-23T23:34:05.203Z,6.80
2019-04-23T23:38:16.685Z,6.70
2019-04-23T23:42:18.073Z,6.50
2019-04-23T23:50:55.067Z,6.43
2019-04-23T23:54:52.548Z,7.23
2019-04-23T23:59:03.800Z,6.93
